createdAt,value
2024-01-27T00:00:18.208Z,1165.00
2024-01-27T00:01:18.218Z,1135.00
2024-01-27T00:02:18.122Z,1153.00
2024-01-27T00:03:18.247Z,1160.00
2024-01-27T00:04:18.213Z,1075.00
2024-01-27T00:05:18.294Z,1139.00
2024-01-27T00:06:18.305Z,1122.00
2024-01-27T00:07:18.341Z,1134.00
2024-01-27T00:08:18.196Z,1134.00
2024-01-27T00:09:18.279Z,1060.00
2024-01-27T00:10:18.242Z,1014.00
2024-01-27T00:11:18.275Z,1019.00
2024-01-27T00:12:18.341Z,967.00
2024-01-27T00:13:18.261Z,792.00
2024-01-27T00:14:18.278Z,739.00
2024-01-27T00:15:18.258Z,1027.00
2024-01-27T00:16:18.240Z,1048.00
2024-01-27T00:17:18.208Z,1043.00
2024-01-27T00:18:18.307Z,976.00
2024-01-27T00:19:18.409Z,1200.00
2024-01-27T00:20:18.383Z,1207.00
2024-01-27T00:21:18.257Z,1153.00
2024-01-27T00:22:18.304Z,1014.00
2024-01-27T00:23:18.257Z,975.00
2024-01-27T00:24:18.299Z,872.00
2024-01-27T00:25:18.290Z,882.00
2024-01-27T00:26:18.329Z,1014.00
2024-01-27T00:27:18.397Z,1013.00
2024-01-27T00:28:18.402Z,1065.00
2024-01-27T00:29:18.453Z,1434.00
2024-01-27T00:30:18.596Z,1361.00
2024-01-27T00:31:18.525Z,1251.00
2024-01-27T00:32:18.592Z,1198.00
2024-01-27T00:33:18.650Z,1059.00
2024-01-27T00:34:18.614Z,943.00
2024-01-27T00:35:18.590Z,934.00
2024-01-27T00:36:18.659Z,902.00
2024-01-27T00:37:18.687Z,850.00
2024-01-27T00:38:18.692Z,865.00
2024-01-27T00:39:18.745Z,882.00
2024-01-27T00:40:18.763Z,977.00
2024-01-27T00:41:18.788Z,985.00
2024-01-27T00:42:18.828Z,857.00
2024-01-27T00:43:18.781Z,781.00
2024-01-27T00:44:18.760Z,749.00
2024-01-27T00:45:18.771Z,832.00
2024-01-27T00:46:18.831Z,971.00
2024-01-27T00:47:18.833Z,1062.00
2024-01-27T00:48:19.050Z,1127.00
2024-01-27T00:49:18.983Z,1202.00
2024-01-27T00:50:18.886Z,1243.00
2024-01-27T00:51:18.908Z,1254.00
2024-01-27T00:52:18.894Z,1249.00
2024-01-27T00:53:18.896Z,1221.00
2024-01-27T00:54:19.016Z,1172.00
2024-01-27T00:55:18.938Z,1119.00
2024-01-27T00:56:18.949Z,1075.00
2024-01-27T00:57:19.010Z,1024.00
2024-01-27T00:58:18.969Z,985.00
2024-01-27T00:59:19.034Z,1052.00
2024-01-27T01:00:19.066Z,996.00
2024-01-27T01:01:19.061Z,1010.00
2024-01-27T01:02:19.020Z,1153.00
2024-01-27T01:03:19.342Z,950.00
2024-01-27T01:04:19.171Z,868.00
2024-01-27T01:05:19.196Z,787.00
2024-01-27T01:06:19.460Z,771.00
2024-01-27T01:07:19.246Z,694.00
2024-01-27T01:08:19.239Z,658.00
2024-01-27T01:09:19.303Z,632.00
2024-01-27T01:10:19.287Z,709.00
2024-01-27T01:11:19.285Z,711.00
2024-01-27T01:12:19.398Z,661.00
2024-01-27T01:13:19.285Z,605.00
2024-01-27T01:14:19.332Z,591.00
2024-01-27T01:15:19.323Z,574.00
2024-01-27T01:16:19.257Z,564.00
2024-01-27T01:17:19.265Z,591.00
2024-01-27T01:18:19.356Z,601.00
2024-01-27T01:19:19.311Z,600.00
2024-01-27T01:20:19.286Z,581.00
2024-01-27T01:21:19.337Z,588.00
2024-01-27T01:22:19.300Z,616.00
2024-01-27T01:23:19.298Z,614.00
2024-01-27T01:24:19.354Z,608.00
2024-01-27T01:25:19.322Z,600.00
2024-01-27T01:26:19.381Z,600.00
2024-01-27T01:27:19.444Z,610.00
2024-01-27T01:28:19.511Z,607.00
2024-01-27T01:29:19.496Z,600.00
2024-01-27T01:30:19.623Z,602.00
2024-01-27T01:31:19.566Z,609.00
2024-01-27T01:32:19.582Z,617.00
2024-01-27T01:33:19.884Z,613.00
2024-01-27T01:34:19.837Z,618.00
2024-01-27T01:35:19.731Z,638.00
2024-01-27T01:36:19.838Z,617.00
2024-01-27T01:37:19.814Z,608.00
2024-01-27T01:38:19.888Z,598.00
2024-01-27T01:39:19.990Z,600.00
2024-01-27T01:40:19.939Z,596.00
2024-01-27T01:41:19.946Z,594.00
2024-01-27T01:42:19.978Z,609.00
2024-01-27T01:43:19.966Z,602.00
2024-01-27T01:44:19.966Z,603.00
2024-01-27T01:45:20.078Z,610.00
2024-01-27T01:46:20.038Z,617.00
2024-01-27T01:47:20.092Z,615.00
2024-01-27T01:48:20.292Z,618.00
2024-01-27T01:49:20.244Z,623.00
2024-01-27T01:50:20.204Z,617.00
2024-01-27T01:51:20.212Z,622.00
2024-01-27T01:52:20.134Z,625.00
2024-01-27T01:53:20.147Z,623.00
2024-01-27T01:54:20.202Z,611.00
2024-01-27T01:55:20.221Z,607.00
2024-01-27T01:56:20.267Z,611.00
2024-01-27T01:57:20.425Z,622.00
2024-01-27T01:58:20.363Z,655.00
2024-01-27T01:59:20.397Z,661.00
2024-01-27T02:00:20.686Z,646.00
2024-01-27T02:01:20.641Z,637.00
2024-01-27T02:02:20.486Z,630.00
2024-01-27T02:03:20.561Z,632.00
2024-01-27T02:04:20.618Z,627.00
2024-01-27T02:05:20.644Z,640.00
2024-01-27T02:06:20.715Z,649.00
2024-01-27T02:07:20.668Z,655.00
2024-01-27T02:08:20.673Z,653.00
2024-01-27T02:09:20.787Z,653.00
2024-01-27T02:10:20.697Z,628.00
2024-01-27T02:11:20.752Z,611.00
2024-01-27T02:12:20.825Z,613.00
2024-01-27T02:13:20.806Z,600.00
2024-01-27T02:14:20.845Z,603.00
2024-01-27T02:15:20.878Z,601.00
2024-01-27T02:16:20.879Z,604.00
2024-01-27T02:17:20.927Z,608.00
2024-01-27T02:18:21.004Z,620.00
2024-01-27T02:19:21.023Z,611.00
2024-01-27T02:20:20.985Z,605.00
2024-01-27T02:21:21.066Z,611.00
2024-01-27T02:22:21.009Z,604.00
2024-01-27T02:23:21.036Z,600.00
2024-01-27T02:24:21.109Z,595.00
2024-01-27T02:25:21.136Z,601.00
2024-01-27T02:26:21.200Z,613.00
2024-01-27T02:27:21.309Z,625.00
2024-01-27T02:28:21.244Z,625.00
2024-01-27T02:29:21.255Z,623.00
2024-01-27T02:30:21.331Z,655.00
2024-01-27T02:31:21.347Z,657.00
2024-01-27T02:32:21.379Z,651.00
2024-01-27T02:33:21.458Z,652.00
2024-01-27T02:34:21.582Z,647.00
2024-01-27T02:35:21.492Z,648.00
2024-01-27T02:36:21.581Z,656.00
2024-01-27T02:37:21.537Z,664.00
2024-01-27T02:38:21.567Z,657.00
2024-01-27T02:39:21.606Z,644.00
2024-01-27T02:40:21.656Z,643.00
2024-01-27T02:41:21.645Z,633.00
2024-01-27T02:42:21.685Z,638.00
2024-01-27T02:43:21.704Z,631.00
2024-01-27T02:44:21.702Z,648.00
2024-01-27T02:45:21.726Z,655.00
2024-01-27T02:46:21.794Z,635.00
2024-01-27T02:47:21.780Z,629.00
2024-01-27T02:48:21.927Z,629.00
2024-01-27T02:49:22.012Z,620.00
2024-01-27T02:50:21.844Z,670.00
2024-01-27T02:51:22.013Z,789.00
2024-01-27T02:52:21.913Z,710.00
2024-01-27T02:53:21.958Z,862.00
2024-01-27T02:54:22.031Z,788.00
2024-01-27T02:55:21.992Z,697.00
2024-01-27T02:56:22.031Z,648.00
2024-01-27T02:57:22.028Z,631.00
2024-01-27T02:58:22.914Z,622.00
2024-01-27T02:59:22.032Z,618.00
2024-01-27T03:00:21.976Z,610.00
2024-01-27T03:01:22.136Z,602.00
2024-01-27T03:02:21.971Z,606.00
2024-01-27T03:03:22.010Z,602.00
2024-01-27T03:04:22.011Z,601.00
2024-01-27T03:05:21.992Z,603.00
2024-01-27T03:06:22.016Z,601.00
2024-01-27T03:07:21.975Z,604.00
2024-01-27T03:08:22.036Z,612.00
2024-01-27T03:09:22.050Z,611.00
2024-01-27T03:10:22.018Z,611.00
2024-01-27T03:11:21.989Z,611.00
2024-01-27T03:12:22.053Z,609.00
2024-01-27T03:13:22.042Z,615.00
2024-01-27T03:14:22.074Z,616.00
2024-01-27T03:15:24.053Z,620.00
2024-01-27T03:16:22.124Z,620.00
2024-01-27T03:17:22.151Z,622.00
2024-01-27T03:18:22.245Z,623.00
2024-01-27T03:19:22.278Z,617.00
2024-01-27T03:20:22.262Z,610.00
2024-01-27T03:21:22.349Z,606.00
2024-01-27T03:22:22.323Z,600.00
2024-01-27T03:23:22.312Z,601.00
2024-01-27T03:24:22.352Z,598.00
2024-01-27T03:25:22.314Z,617.00
2024-01-27T03:26:22.317Z,629.00
2024-01-27T03:27:22.308Z,635.00
2024-01-27T03:28:22.366Z,630.00
2024-01-27T03:29:22.360Z,639.00
2024-01-27T03:30:22.415Z,638.00
2024-01-27T03:31:22.404Z,652.00
2024-01-27T03:32:22.408Z,643.00
2024-01-27T03:33:22.532Z,640.00
2024-01-27T03:34:22.577Z,636.00
2024-01-27T03:35:22.553Z,646.00
2024-01-27T03:36:22.576Z,641.00
2024-01-27T03:37:22.544Z,648.00
2024-01-27T03:38:22.594Z,653.00
2024-01-27T03:39:22.649Z,655.00
2024-01-27T03:40:22.670Z,663.00
2024-01-27T03:41:22.746Z,658.00
2024-01-27T03:42:22.807Z,662.00
2024-01-27T03:43:22.736Z,657.00
2024-01-27T03:44:22.779Z,649.00
2024-01-27T03:45:22.854Z,647.00
2024-01-27T03:46:22.798Z,649.00
2024-01-27T03:47:22.835Z,660.00
2024-01-27T03:48:22.971Z,668.00
2024-01-27T03:49:22.937Z,678.00
2024-01-27T03:50:22.841Z,699.00
2024-01-27T03:51:22.891Z,662.00
2024-01-27T03:52:22.856Z,645.00
2024-01-27T03:53:22.859Z,631.00
2024-01-27T03:54:22.957Z,619.00
2024-01-27T03:55:22.875Z,606.00
2024-01-27T03:56:22.846Z,610.00
2024-01-27T03:57:22.914Z,612.00
2024-01-27T03:58:22.859Z,610.00
2024-01-27T03:59:22.977Z,618.00
2024-01-27T04:00:23.009Z,620.00
2024-01-27T04:01:23.045Z,629.00
2024-01-27T04:02:23.054Z,634.00
2024-01-27T04:03:23.148Z,641.00
2024-01-27T04:04:23.225Z,649.00
2024-01-27T04:05:23.130Z,664.00
2024-01-27T04:06:23.251Z,690.00
2024-01-27T04:07:23.249Z,716.00
2024-01-27T04:08:23.324Z,735.00
2024-01-27T04:09:23.410Z,754.00
2024-01-27T04:10:23.417Z,776.00
2024-01-27T04:11:23.490Z,829.00
2024-01-27T04:12:23.441Z,858.00
2024-01-27T04:13:23.473Z,936.00
2024-01-27T04:14:23.637Z,950.00
2024-01-27T04:15:23.531Z,974.00
2024-01-27T04:16:23.556Z,979.00
2024-01-27T04:17:23.540Z,995.00
2024-01-27T04:18:23.675Z,987.00
2024-01-27T04:19:23.657Z,1034.00
2024-01-27T04:20:23.597Z,1037.00
2024-01-27T04:21:23.685Z,1088.00
2024-01-27T04:22:23.568Z,1136.00
2024-01-27T04:23:23.650Z,1143.00
2024-01-27T04:24:23.769Z,1125.00
2024-01-27T04:25:23.696Z,1103.00
2024-01-27T04:26:24.527Z,1074.00
2024-01-27T04:27:23.921Z,1064.00
2024-01-27T04:28:23.863Z,1063.00
2024-01-27T04:29:23.895Z,1089.00
2024-01-27T04:30:23.952Z,1101.00
2024-01-27T04:31:23.879Z,1108.00
2024-01-27T04:32:23.992Z,1106.00
2024-01-27T04:33:24.089Z,1126.00
2024-01-27T04:34:24.039Z,1086.00
2024-01-27T04:35:23.926Z,1052.00
2024-01-27T04:36:23.982Z,1028.00
2024-01-27T04:37:24.057Z,1030.00
2024-01-27T04:38:24.088Z,1024.00
2024-01-27T04:39:24.211Z,1037.00
2024-01-27T04:40:24.161Z,1063.00
2024-01-27T04:41:24.193Z,1109.00
2024-01-27T04:42:24.298Z,1144.00
2024-01-27T04:43:24.306Z,1157.00
2024-01-27T04:44:36.644Z,600.00
2024-01-27T04:45:36.663Z,600.00
2024-01-27T04:46:36.643Z,600.00
2024-01-27T04:47:36.704Z,600.00
2024-01-27T04:48:36.779Z,600.00
2024-01-27T04:49:36.927Z,600.00
2024-01-27T04:50:36.665Z,600.00
2024-01-27T04:51:36.734Z,600.00
2024-01-27T04:52:36.711Z,602.00
2024-01-27T04:53:36.672Z,600.00
2024-01-27T04:54:36.726Z,600.00
2024-01-27T04:55:36.674Z,600.00
2024-01-27T04:56:36.713Z,600.00
2024-01-27T04:57:36.745Z,603.00
2024-01-27T04:58:36.659Z,615.00
2024-01-27T04:59:36.709Z,617.00
2024-01-27T05:00:36.790Z,627.00
2024-01-27T05:01:36.751Z,636.00
2024-01-27T05:02:36.760Z,651.00
2024-01-27T05:03:36.916Z,673.00
2024-01-27T05:04:37.828Z,742.00
2024-01-27T05:05:37.163Z,748.00
2024-01-27T05:06:37.085Z,734.00
2024-01-27T05:07:36.997Z,728.00
2024-01-27T05:08:37.080Z,723.00
2024-01-27T05:09:37.240Z,724.00
2024-01-27T05:10:37.241Z,755.00
2024-01-27T05:11:37.286Z,743.00
2024-01-27T05:12:37.477Z,694.00
2024-01-27T05:13:37.437Z,672.00
2024-01-27T05:14:37.502Z,653.00
2024-01-27T05:15:37.631Z,634.00
2024-01-27T05:16:37.611Z,622.00
2024-01-27T05:17:37.716Z,605.00
2024-01-27T05:18:37.820Z,602.00
2024-01-27T05:19:37.836Z,619.00
2024-01-27T05:20:37.907Z,631.00
2024-01-27T05:21:37.918Z,641.00
2024-01-27T05:22:37.970Z,652.00
2024-01-27T05:23:38.032Z,670.00
2024-01-27T05:24:38.090Z,742.00
2024-01-27T05:25:38.093Z,718.00
2024-01-27T05:26:38.150Z,730.00
2024-01-27T05:27:38.246Z,726.00
2024-01-27T05:28:38.254Z,692.00
2024-01-27T05:29:38.300Z,663.00
2024-01-27T05:30:38.426Z,646.00
2024-01-27T05:31:38.393Z,648.00
2024-01-27T05:32:38.522Z,647.00
2024-01-27T05:33:38.643Z,641.00
2024-01-27T05:34:38.711Z,657.00
2024-01-27T05:35:38.594Z,654.00
2024-01-27T05:36:38.588Z,641.00
2024-01-27T05:37:38.619Z,652.00
2024-01-27T05:38:38.692Z,639.00
2024-01-27T05:39:38.767Z,644.00
2024-01-27T05:40:41.769Z,647.00
2024-01-27T05:41:38.746Z,661.00
2024-01-27T05:42:38.787Z,650.00
2024-01-27T05:43:38.766Z,634.00
2024-01-27T05:44:38.829Z,626.00
2024-01-27T05:45:38.886Z,646.00
2024-01-27T05:46:40.427Z,614.00
2024-01-27T05:47:38.926Z,607.00
2024-01-27T05:48:39.015Z,612.00
2024-01-27T05:49:39.099Z,600.00
2024-01-27T05:50:38.922Z,599.00
2024-01-27T05:51:38.950Z,602.00
2024-01-27T05:52:38.951Z,600.00
2024-01-27T05:53:38.999Z,605.00
2024-01-27T05:54:39.078Z,610.00
2024-01-27T05:55:38.987Z,612.00
2024-01-27T05:56:38.953Z,619.00
2024-01-27T05:57:38.998Z,630.00
2024-01-27T05:58:38.996Z,657.00
2024-01-27T05:59:39.011Z,697.00
2024-01-27T06:00:39.166Z,727.00
2024-01-27T06:01:39.039Z,755.00
2024-01-27T06:02:38.984Z,791.00
2024-01-27T06:03:39.104Z,792.00
2024-01-27T06:04:39.053Z,780.00
2024-01-27T06:05:39.041Z,771.00
2024-01-27T06:06:39.117Z,753.00
2024-01-27T06:07:39.061Z,750.00
2024-01-27T06:08:39.124Z,773.00
2024-01-27T06:09:39.301Z,799.00
2024-01-27T06:10:39.240Z,829.00
2024-01-27T06:11:39.282Z,879.00
2024-01-27T06:12:39.344Z,901.00
2024-01-27T06:13:39.520Z,881.00
2024-01-27T06:14:39.343Z,863.00
2024-01-27T06:15:39.374Z,865.00
2024-01-27T06:16:39.343Z,860.00
2024-01-27T06:17:39.444Z,862.00
2024-01-27T06:18:39.520Z,873.00
2024-01-27T06:19:39.536Z,882.00
2024-01-27T06:20:39.398Z,914.00
2024-01-27T06:21:39.441Z,928.00
2024-01-27T06:22:39.390Z,944.00
2024-01-27T06:23:39.368Z,945.00
2024-01-27T06:24:39.424Z,931.00
2024-01-27T06:25:39.411Z,940.00
2024-01-27T06:26:39.403Z,916.00
2024-01-27T06:27:39.428Z,888.00
2024-01-27T06:28:39.461Z,855.00
2024-01-27T06:29:39.470Z,812.00
2024-01-27T06:30:39.517Z,806.00
2024-01-27T06:31:39.445Z,818.00
2024-01-27T06:32:39.532Z,820.00
2024-01-27T06:33:39.646Z,822.00
2024-01-27T06:34:39.522Z,823.00
2024-01-27T06:35:39.498Z,822.00
2024-01-27T06:36:39.501Z,810.00
2024-01-27T06:37:39.459Z,765.00
2024-01-27T06:38:39.439Z,757.00
2024-01-27T06:39:39.596Z,791.00
2024-01-27T06:40:39.457Z,868.00
2024-01-27T06:41:39.498Z,967.00
2024-01-27T06:42:39.603Z,1009.00
2024-01-27T06:43:39.534Z,1019.00
2024-01-27T06:44:39.534Z,1045.00
2024-01-27T06:45:39.621Z,1079.00
2024-01-27T06:46:39.565Z,1143.00
2024-01-27T06:47:39.542Z,1199.00
2024-01-27T06:48:39.761Z,1242.00
2024-01-27T06:49:39.634Z,1275.00
2024-01-27T06:50:39.590Z,1281.00
2024-01-27T06:51:39.597Z,1293.00
2024-01-27T06:52:39.598Z,1318.00
2024-01-27T06:53:39.639Z,1415.00
2024-01-27T06:54:39.742Z,1507.00
2024-01-27T06:55:43.473Z,1565.00
2024-01-27T06:56:40.343Z,1568.00
2024-01-27T06:57:39.845Z,1582.00
2024-01-27T06:58:39.774Z,1620.00
2024-01-27T06:59:39.834Z,1670.00
2024-01-27T07:00:39.890Z,1754.00
2024-01-27T07:01:39.884Z,1763.00
2024-01-27T07:02:39.829Z,1737.00
2024-01-27T07:03:39.942Z,1732.00
2024-01-27T07:04:39.841Z,1725.00
2024-01-27T07:05:40.167Z,1734.00
2024-01-27T07:06:40.004Z,1735.00
2024-01-27T07:07:39.875Z,1739.00
2024-01-27T07:08:39.908Z,1747.00
2024-01-27T07:09:39.919Z,1753.00
2024-01-27T07:10:39.919Z,1787.00
2024-01-27T07:11:39.925Z,1838.00
2024-01-27T07:12:40.014Z,1880.00
2024-01-27T07:13:39.922Z,1903.00
2024-01-27T07:14:39.916Z,1917.00
2024-01-27T07:15:40.109Z,1925.00
2024-01-27T07:16:40.113Z,1935.00
2024-01-27T07:17:40.132Z,1927.00
2024-01-27T07:18:40.291Z,1917.00
2024-01-27T07:19:40.218Z,1905.00
2024-01-27T07:20:40.158Z,1901.00
2024-01-27T07:21:40.242Z,1926.00
2024-01-27T07:22:40.212Z,1914.00
2024-01-27T07:23:40.240Z,1904.00
2024-01-27T07:24:40.241Z,1923.00
2024-01-27T07:25:40.286Z,1940.00
2024-01-27T07:26:40.300Z,1945.00
2024-01-27T07:27:40.490Z,1978.00
2024-01-27T07:28:40.359Z,2010.00
2024-01-27T07:29:40.361Z,1975.00
2024-01-27T07:30:40.466Z,1927.00
2024-01-27T07:31:40.417Z,1870.00
2024-01-27T07:32:40.447Z,1777.00
2024-01-27T07:33:40.566Z,1699.00
2024-01-27T07:34:40.509Z,1644.00
2024-01-27T07:35:40.502Z,1609.00
2024-01-27T07:36:40.568Z,1585.00
2024-01-27T07:37:40.511Z,1601.00
2024-01-27T07:38:40.526Z,1703.00
2024-01-27T07:39:40.677Z,1839.00
2024-01-27T07:40:40.599Z,1918.00
2024-01-27T07:41:40.630Z,1988.00
2024-01-27T07:42:40.672Z,2049.00
2024-01-27T07:43:40.665Z,2092.00
2024-01-27T07:44:40.739Z,2111.00
2024-01-27T07:45:40.745Z,2120.00
2024-01-27T07:46:40.751Z,2106.00
2024-01-27T07:47:40.833Z,2094.00
2024-01-27T07:48:40.898Z,2110.00
2024-01-27T07:49:40.890Z,2140.00
2024-01-27T07:50:40.859Z,2128.00
2024-01-27T07:51:40.870Z,2171.00
2024-01-27T07:52:40.901Z,2175.00
2024-01-27T07:53:40.948Z,2130.00
2024-01-27T07:54:41.007Z,2129.00
2024-01-27T07:55:41.041Z,2139.00
2024-01-27T07:56:41.137Z,2144.00
2024-01-27T07:57:41.204Z,2145.00
2024-01-27T07:58:41.191Z,2124.00
2024-01-27T07:59:41.221Z,2134.00
2024-01-27T08:00:41.424Z,2142.00
2024-01-27T08:01:41.289Z,2155.00
2024-01-27T08:02:41.266Z,2187.00
2024-01-27T08:03:41.341Z,2277.00
2024-01-27T08:04:41.383Z,2398.00
2024-01-27T08:05:41.377Z,2546.00
2024-01-27T08:06:41.413Z,2647.00
2024-01-27T08:07:41.470Z,2662.00
2024-01-27T08:08:41.505Z,2632.00
2024-01-27T08:09:41.540Z,2561.00
2024-01-27T08:10:41.580Z,2473.00
2024-01-27T08:11:41.757Z,2400.00
2024-01-27T08:12:41.724Z,2333.00
2024-01-27T08:13:41.788Z,2271.00
2024-01-27T08:14:41.953Z,2169.00
2024-01-27T08:15:41.997Z,2098.00
2024-01-27T08:16:41.960Z,2053.00
2024-01-27T08:17:42.049Z,2051.00
2024-01-27T08:18:42.272Z,2018.00
2024-01-27T08:19:42.220Z,1988.00
2024-01-27T08:20:42.186Z,2013.00
2024-01-27T08:21:42.326Z,1980.00
2024-01-27T08:22:42.329Z,1955.00
2024-01-27T08:23:42.401Z,1934.00
2024-01-27T08:24:42.490Z,1930.00
2024-01-27T08:25:42.524Z,1897.00
2024-01-27T08:26:42.622Z,1878.00
2024-01-27T08:27:42.680Z,1845.00
2024-01-27T08:28:42.701Z,1821.00
2024-01-27T08:29:42.787Z,1771.00
2024-01-27T08:30:42.910Z,1761.00
2024-01-27T08:31:43.023Z,1731.00
2024-01-27T08:32:43.032Z,1682.00
2024-01-27T08:33:43.092Z,1645.00
2024-01-27T08:34:43.188Z,1615.00
2024-01-27T08:35:43.190Z,1555.00
2024-01-27T08:36:43.262Z,1536.00
2024-01-27T08:37:43.270Z,1515.00
2024-01-27T08:38:43.328Z,1494.00
2024-01-27T08:39:43.466Z,1410.00
2024-01-27T08:40:43.509Z,1377.00
2024-01-27T08:41:43.501Z,1322.00
2024-01-27T08:42:43.587Z,1301.00
2024-01-27T08:43:43.615Z,1311.00
2024-01-27T08:44:43.686Z,1285.00
2024-01-27T08:45:43.742Z,1286.00
2024-01-27T08:46:43.698Z,1212.00
2024-01-27T08:47:43.758Z,1142.00
2024-01-27T08:48:43.811Z,1072.00
2024-01-27T08:49:43.803Z,1050.00
2024-01-27T08:50:43.723Z,1019.00
2024-01-27T08:51:43.707Z,985.00
2024-01-27T08:52:43.704Z,961.00
2024-01-27T08:53:43.815Z,960.00
2024-01-27T08:54:43.831Z,952.00
2024-01-27T08:55:43.721Z,928.00
2024-01-27T08:56:43.728Z,934.00
2024-01-27T08:57:43.734Z,900.00
2024-01-27T08:58:43.771Z,881.00
2024-01-27T08:59:43.839Z,821.00
2024-01-27T09:00:44.044Z,797.00
2024-01-27T09:01:43.914Z,790.00
2024-01-27T09:02:43.971Z,810.00
2024-01-27T09:03:44.081Z,816.00
2024-01-27T09:04:44.227Z,818.00
2024-01-27T09:05:44.148Z,809.00
2024-01-27T09:06:44.217Z,796.00
2024-01-27T09:07:44.176Z,780.00
2024-01-27T09:08:44.285Z,805.00
2024-01-27T09:09:44.380Z,722.00
2024-01-27T09:10:44.379Z,701.00
2024-01-27T09:11:44.430Z,667.00
2024-01-27T09:12:44.532Z,645.00
2024-01-27T09:13:44.504Z,645.00
2024-01-27T09:14:44.530Z,658.00
2024-01-27T09:15:44.571Z,655.00
2024-01-27T09:16:44.572Z,660.00
2024-01-27T09:17:44.587Z,661.00
2024-01-27T09:18:44.751Z,652.00
2024-01-27T09:19:44.685Z,650.00
2024-01-27T09:20:44.678Z,653.00
2024-01-27T09:21:44.722Z,652.00
2024-01-27T09:22:44.706Z,662.00
2024-01-27T09:23:44.712Z,685.00
2024-01-27T09:24:44.824Z,717.00
2024-01-27T09:25:44.736Z,749.00
2024-01-27T09:26:44.723Z,752.00
2024-01-27T09:27:44.803Z,772.00
2024-01-27T09:28:44.730Z,819.00
2024-01-27T09:29:44.737Z,872.00
2024-01-27T09:30:44.899Z,853.00
2024-01-27T09:31:44.770Z,721.00
2024-01-27T09:32:44.794Z,634.00
2024-01-27T09:33:44.786Z,600.00
2024-01-27T09:34:44.709Z,600.00
2024-01-27T09:35:44.774Z,600.00
2024-01-27T09:36:44.786Z,600.00
2024-01-27T09:37:44.741Z,600.00
2024-01-27T09:38:44.682Z,593.00
2024-01-27T09:39:44.737Z,581.00
2024-01-27T09:40:44.673Z,578.00
2024-01-27T09:41:44.686Z,576.00
2024-01-27T09:42:44.678Z,603.00
2024-01-27T09:43:44.663Z,612.00
2024-01-27T09:44:44.649Z,625.00
2024-01-27T09:45:44.717Z,636.00
2024-01-27T09:46:44.643Z,644.00
2024-01-27T09:47:44.705Z,650.00
2024-01-27T09:48:44.911Z,676.00
2024-01-27T09:49:44.796Z,695.00
2024-01-27T09:50:44.616Z,696.00
2024-01-27T09:51:44.670Z,723.00
2024-01-27T09:52:44.648Z,805.00
2024-01-27T09:53:44.716Z,865.00
2024-01-27T09:54:44.786Z,913.00
2024-01-27T09:55:44.777Z,915.00
2024-01-27T09:56:44.788Z,940.00
2024-01-27T09:57:44.744Z,921.00
2024-01-27T09:58:44.746Z,949.00
2024-01-27T09:59:44.772Z,999.00
2024-01-27T10:00:44.876Z,1112.00
2024-01-27T10:01:44.734Z,1303.00
2024-01-27T10:02:44.735Z,1296.00
2024-01-27T10:03:44.912Z,1253.00
2024-01-27T10:04:44.922Z,1247.00
2024-01-27T10:05:44.860Z,1186.00
2024-01-27T10:06:44.993Z,1086.00
2024-01-27T10:07:44.987Z,1064.00
2024-01-27T10:08:45.048Z,1056.00
2024-01-27T10:09:45.085Z,1050.00
2024-01-27T10:10:45.156Z,1004.00
2024-01-27T10:11:45.255Z,946.00
2024-01-27T10:12:45.271Z,917.00
2024-01-27T10:13:45.350Z,898.00
2024-01-27T10:14:45.401Z,858.00
2024-01-27T10:15:45.502Z,827.00
2024-01-27T10:16:45.536Z,812.00
2024-01-27T10:17:45.642Z,810.00
2024-01-27T10:18:45.788Z,799.00
2024-01-27T10:19:46.043Z,785.00
2024-01-27T10:20:45.805Z,817.00
2024-01-27T10:21:45.884Z,852.00
2024-01-27T10:22:45.933Z,871.00
2024-01-27T10:23:45.953Z,914.00
2024-01-27T10:24:46.100Z,952.00
2024-01-27T10:25:46.067Z,945.00
2024-01-27T10:26:46.116Z,922.00
2024-01-27T10:27:46.234Z,921.00
2024-01-27T10:28:46.242Z,842.00
2024-01-27T10:29:46.316Z,792.00
2024-01-27T10:30:46.469Z,790.00
2024-01-27T10:31:46.399Z,769.00
2024-01-27T10:32:46.513Z,733.00
2024-01-27T10:33:46.613Z,708.00
2024-01-27T10:34:46.653Z,688.00
2024-01-27T10:35:46.658Z,682.00
2024-01-27T10:36:47.064Z,666.00
2024-01-27T10:37:46.755Z,661.00
2024-01-27T10:38:46.791Z,664.00
2024-01-27T10:39:46.873Z,675.00
2024-01-27T10:40:46.813Z,664.00
2024-01-27T10:41:46.834Z,673.00
2024-01-27T10:42:46.829Z,685.00
2024-01-27T10:43:46.886Z,692.00
2024-01-27T10:44:46.866Z,686.00
2024-01-27T10:45:46.972Z,692.00
2024-01-27T10:46:46.824Z,717.00
2024-01-27T10:47:46.877Z,724.00
2024-01-27T10:48:46.866Z,740.00
2024-01-27T10:49:46.964Z,783.00
2024-01-27T10:50:46.933Z,784.00
2024-01-27T10:51:46.829Z,785.00
2024-01-27T10:52:46.774Z,796.00
2024-01-27T10:53:46.788Z,812.00
2024-01-27T10:54:46.899Z,832.00
2024-01-27T10:55:46.768Z,830.00
2024-01-27T10:56:46.816Z,797.00
2024-01-27T10:57:46.820Z,798.00
2024-01-27T10:58:46.817Z,803.00
2024-01-27T10:59:46.804Z,818.00
2024-01-27T11:00:46.922Z,810.00
2024-01-27T11:01:46.809Z,782.00
2024-01-27T11:02:46.843Z,811.00
2024-01-27T11:03:46.925Z,787.00
2024-01-27T11:04:46.893Z,741.00
2024-01-27T11:05:46.950Z,712.00
2024-01-27T11:06:46.992Z,692.00
2024-01-27T11:07:46.883Z,728.00
2024-01-27T11:08:46.923Z,661.00
2024-01-27T11:09:46.950Z,655.00
2024-01-27T11:10:46.950Z,661.00
2024-01-27T11:11:47.008Z,662.00
2024-01-27T11:12:47.044Z,697.00
2024-01-27T11:13:47.070Z,711.00
2024-01-27T11:14:47.078Z,689.00
2024-01-27T11:15:47.197Z,700.00
2024-01-27T11:16:47.242Z,726.00
2024-01-27T11:17:47.292Z,698.00
2024-01-27T11:18:47.392Z,633.00
2024-01-27T11:19:47.353Z,602.00
2024-01-27T11:20:47.397Z,615.00
2024-01-27T11:21:47.546Z,638.00
2024-01-27T11:22:47.494Z,638.00
2024-01-27T11:23:47.558Z,642.00
2024-01-27T11:24:47.708Z,640.00
2024-01-27T11:25:47.679Z,637.00
2024-01-27T11:26:47.767Z,630.00
2024-01-27T11:27:47.823Z,630.00
2024-01-27T11:28:47.858Z,620.00
2024-01-27T11:29:47.981Z,623.00
2024-01-27T11:30:48.002Z,626.00
2024-01-27T11:31:48.038Z,620.00
2024-01-27T11:32:48.134Z,614.00
2024-01-27T11:33:48.407Z,603.00
2024-01-27T11:34:48.201Z,602.00
2024-01-27T11:35:48.189Z,608.00
2024-01-27T11:36:48.331Z,598.00
2024-01-27T11:37:48.325Z,600.00
2024-01-27T11:38:48.367Z,590.00
2024-01-27T11:39:48.503Z,598.00
2024-01-27T11:40:48.784Z,587.00
2024-01-27T11:41:48.532Z,597.00
2024-01-27T11:42:48.610Z,600.00
2024-01-27T11:43:48.607Z,599.00
2024-01-27T11:44:48.713Z,600.00
2024-01-27T11:45:48.782Z,605.00
2024-01-27T11:46:48.745Z,615.00
2024-01-27T11:47:48.911Z,607.00
2024-01-27T11:48:48.916Z,613.00
2024-01-27T11:49:48.918Z,613.00
2024-01-27T11:50:48.933Z,602.00
2024-01-27T11:51:49.032Z,600.00
2024-01-27T11:52:49.034Z,601.00
2024-01-27T11:53:49.061Z,617.00
2024-01-27T11:54:49.177Z,642.00
2024-01-27T11:55:49.184Z,647.00
2024-01-27T11:56:49.250Z,643.00
2024-01-27T11:57:49.326Z,630.00
2024-01-27T11:58:49.617Z,627.00
2024-01-27T11:59:49.565Z,636.00
2024-01-27T12:00:49.581Z,636.00
2024-01-27T12:01:49.631Z,665.00
2024-01-27T12:02:49.597Z,698.00
2024-01-27T12:03:49.825Z,690.00
2024-01-27T12:04:49.752Z,723.00
2024-01-27T12:05:50.718Z,724.00
2024-01-27T12:06:49.948Z,733.00
2024-01-27T12:07:49.949Z,739.00
2024-01-27T12:08:50.668Z,755.00
2024-01-27T12:09:50.060Z,746.00
2024-01-27T12:10:50.133Z,749.00
2024-01-27T12:11:50.122Z,736.00
2024-01-27T12:12:50.161Z,719.00
2024-01-27T12:13:50.256Z,706.00
2024-01-27T12:14:50.289Z,708.00
2024-01-27T12:15:50.409Z,705.00
2024-01-27T12:16:50.375Z,727.00
2024-01-27T12:17:50.445Z,773.00
2024-01-27T12:18:50.566Z,714.00
2024-01-27T12:19:50.634Z,669.00
2024-01-27T12:20:50.590Z,632.00
2024-01-27T12:21:50.605Z,623.00
2024-01-27T12:22:50.682Z,624.00